createdAt,value
2019-06-27T03:10:46.790Z,38.30
2019-06-27T03:13:17.474Z,19.00
2019-06-27T03:15:48.231Z,18.80
2019-06-27T03:18:18.885Z,18.70
2019-06-27T03:20:49.538Z,18.70
2019-06-27T03:23:20.273Z,18.60
2019-06-27T03:25:51.139Z,18.70
2019-06-27T03:28:21.758Z,18.70
2019-06-27T03:30:52.591Z,18.50
2019-06-27T03:33:23.252Z,18.50
2019-06-27T03:35:53.991Z,18.60
2019-06-27T03:38:24.731Z,18.70
2019-06-27T03:40:55.512Z,18.70
2019-06-27T03:43:26.448Z,18.80
2019-06-27T03:45:57.309Z,18.90
2019-06-27T03:48:29.127Z,19.10
2019-06-27T03:50:59.815Z,19.10
2019-06-27T03:53:30.536Z,19.20
2019-06-27T03:56:01.212Z,19.20
2019-06-27T03:58:33.131Z,19.30
2019-06-27T04:01:04.010Z,19.30
2019-06-27T04:03:34.772Z,19.40
2019-06-27T04:06:05.444Z,19.50
2019-06-27T04:08:36.326Z,19.60
2019-06-27T04:11:07.979Z,19.70
2019-06-27T04:13:39.128Z,19.90
2019-06-27T04:16:10.204Z,20.10
2019-06-27T04:18:42.405Z,20.40
2019-06-27T04:21:13.578Z,20.70
2019-06-27T04:23:44.292Z,20.70
2019-06-27T04:26:14.998Z,20.40
2019-06-27T04:28:45.627Z,20.40
2019-06-27T04:31:16.291Z,20.30
2019-06-27T04:33:47.179Z,20.00
2019-06-27T04:36:17.898Z,19.80
2019-06-27T04:38:48.520Z,19.80
2019-06-27T04:41:19.190Z,19.60
2019-06-27T04:43:49.851Z,19.60
2019-06-27T04:46:20.554Z,19.50
2019-06-27T04:48:51.266Z,19.30
2019-06-27T04:51:21.966Z,19.40
2019-06-27T04:53:52.632Z,19.40
2019-06-27T04:56:23.263Z,19.60
2019-06-27T04:58:53.981Z,19.50
2019-06-27T05:01:24.637Z,19.30
2019-06-27T05:03:55.305Z,19.30
2019-06-27T05:06:25.925Z,19.30
2019-06-27T05:08:56.576Z,19.50
2019-06-27T05:11:27.233Z,19.30
2019-06-27T05:13:57.874Z,19.10
2019-06-27T05:16:28.834Z,19.10
2019-06-27T05:18:59.549Z,18.90
2019-06-27T05:21:30.219Z,19.20
2019-06-27T05:24:00.869Z,19.20
2019-06-27T05:26:31.558Z,19.30
2019-06-27T05:29:02.503Z,19.50
2019-06-27T05:31:33.973Z,19.70
2019-06-27T05:34:04.611Z,19.90
2019-06-27T05:36:35.323Z,20.40
2019-06-27T05:39:06.619Z,20.80
2019-06-27T05:41:37.285Z,21.30
2019-06-27T05:44:26.992Z,21.70
2019-06-27T05:46:58.264Z,21.90
2019-06-27T05:49:29.461Z,21.60
2019-06-27T05:52:00.212Z,21.10
2019-06-27T05:54:30.855Z,20.70
2019-06-27T05:57:01.606Z,19.60
2019-06-27T05:59:32.241Z,19.20
2019-06-27T06:02:03.052Z,19.10
2019-06-27T06:04:34.357Z,18.80
2019-06-27T06:07:05.123Z,18.60
2019-06-27T06:09:35.764Z,18.50
2019-06-27T06:12:06.485Z,18.30
2019-06-27T06:14:37.168Z,18.50
2019-06-27T06:17:07.943Z,18.80
2019-06-27T06:19:38.634Z,18.90
2019-06-27T06:22:09.328Z,18.80
2019-06-27T06:24:40.938Z,19.20
2019-06-27T06:27:11.609Z,19.80
2019-06-27T06:29:42.266Z,20.20
2019-06-27T06:32:12.937Z,20.50
2019-06-27T06:34:43.773Z,20.30
2019-06-27T06:37:14.458Z,20.50
2019-06-27T06:39:45.495Z,20.80
2019-06-27T06:42:16.189Z,20.70
2019-06-27T06:44:47.612Z,20.00
2019-06-27T06:47:18.471Z,20.00
2019-06-27T06:49:49.930Z,20.50
2019-06-27T06:52:20.596Z,20.70
2019-06-27T06:54:51.443Z,21.00
2019-06-27T06:57:22.434Z,21.20
2019-06-27T06:59:53.130Z,21.30
2019-06-27T07:02:23.839Z,21.30
2019-06-27T07:04:54.553Z,22.00
2019-06-27T07:07:25.297Z,22.50
2019-06-27T07:09:56.082Z,21.70
2019-06-27T07:12:26.798Z,21.40
2019-06-27T07:14:57.463Z,20.70
2019-06-27T07:17:28.294Z,20.80
2019-06-27T07:19:58.954Z,20.50
2019-06-27T07:22:30.102Z,20.80
2019-06-27T07:25:03.619Z,20.50
2019-06-27T07:27:34.559Z,20.40
2019-06-27T07:30:09.661Z,20.80
2019-06-27T07:32:41.878Z,20.80
2019-06-27T07:35:12.686Z,20.70
2019-06-27T07:37:43.370Z,20.70
2019-06-27T07:40:14.260Z,20.10
2019-06-27T07:42:45.342Z,20.50
2019-06-27T07:45:16.106Z,20.90
2019-06-27T07:47:46.757Z,20.70
2019-06-27T07:50:17.931Z,20.60
2019-06-27T07:52:48.872Z,21.20
2019-06-27T07:55:21.049Z,20.70
2019-06-27T07:57:52.602Z,21.20
2019-06-27T08:00:24.682Z,21.60
2019-06-27T08:02:55.430Z,20.30
2019-06-27T08:05:27.204Z,19.80
2019-06-27T08:07:57.879Z,19.80
2019-06-27T08:10:28.750Z,20.00
2019-06-27T08:12:59.634Z,20.60
2019-06-27T08:15:30.304Z,21.40
2019-06-27T08:18:01.003Z,21.80
2019-06-27T08:20:31.663Z,21.70
2019-06-27T08:23:02.404Z,21.70
2019-06-27T08:25:33.888Z,21.70
2019-06-27T08:28:04.646Z,21.20
2019-06-27T08:30:35.337Z,20.90
2019-06-27T08:33:06.033Z,21.00
2019-06-27T08:35:36.686Z,21.20
2019-06-27T08:38:07.403Z,20.80
2019-06-27T08:40:38.157Z,21.30
2019-06-27T08:43:08.848Z,21.00
2019-06-27T08:45:40.326Z,20.90
2019-06-27T08:48:11.087Z,21.20
2019-06-27T08:50:41.831Z,21.30
2019-06-27T08:53:12.537Z,20.90
2019-06-27T08:55:43.296Z,21.30
2019-06-27T08:58:13.942Z,21.30
2019-06-27T09:00:45.991Z,21.80
2019-06-27T09:03:16.853Z,22.20
2019-06-27T09:05:47.537Z,21.90
2019-06-27T09:08:18.191Z,22.50
2019-06-27T09:11:01.189Z,23.00
2019-06-27T09:13:35.866Z,23.40
2019-06-27T09:16:07.825Z,23.30
2019-06-27T09:18:40.245Z,22.70
2019-06-27T09:21:13.682Z,22.80
2019-06-27T09:23:44.447Z,22.90
2019-06-27T09:26:15.094Z,22.90
2019-06-27T09:28:45.784Z,22.60
2019-06-27T09:31:16.429Z,22.90
2019-06-27T09:33:47.127Z,23.10
2019-06-27T09:36:17.757Z,23.70
2019-06-27T09:38:48.458Z,24.20
2019-06-27T09:41:19.180Z,24.50
2019-06-27T09:43:49.854Z,23.90
2019-06-27T09:46:20.540Z,23.80
2019-06-27T09:48:51.289Z,24.20
2019-06-27T09:51:21.998Z,24.20
2019-06-27T09:53:52.673Z,23.90
2019-06-27T09:56:23.315Z,23.70
2019-06-27T09:58:54.359Z,23.70
2019-06-27T10:01:25.027Z,24.00
2019-06-27T10:03:56.025Z,24.60
2019-06-27T10:06:26.679Z,23.80
2019-06-27T10:08:58.231Z,23.80
2019-06-27T10:11:28.923Z,23.90
2019-06-27T10:14:00.358Z,24.10
2019-06-27T10:16:31.704Z,24.10
2019-06-27T10:19:02.361Z,24.30
2019-06-27T10:21:33.203Z,23.90
2019-06-27T10:24:03.916Z,24.40
2019-06-27T10:26:34.636Z,24.50
2019-06-27T10:29:05.400Z,24.40
2019-06-27T10:31:36.632Z,24.20
2019-06-27T10:34:07.330Z,23.80
2019-06-27T10:36:38.634Z,23.50
2019-06-27T10:39:09.296Z,23.30
2019-06-27T10:41:40.019Z,23.10
2019-06-27T10:44:12.090Z,23.70
2019-06-27T10:46:43.693Z,24.40
2019-06-27T10:49:14.377Z,24.80
2019-06-27T10:51:46.961Z,25.10
2019-06-27T10:54:17.726Z,24.80
2019-06-27T10:56:48.551Z,24.90
2019-06-27T10:59:19.399Z,25.00
2019-06-27T11:01:50.406Z,25.10
2019-06-27T11:04:21.165Z,25.20
2019-06-27T11:06:51.984Z,25.20
2019-06-27T11:09:22.802Z,25.30
2019-06-27T11:11:54.951Z,25.20
2019-06-27T11:14:27.940Z,25.30
2019-06-27T11:16:58.866Z,25.40
2019-06-27T11:19:29.737Z,24.80
2019-06-27T11:22:01.105Z,25.00
2019-06-27T11:24:31.768Z,25.40
2019-06-27T11:27:03.134Z,25.50
2019-06-27T11:29:33.849Z,25.40
2019-06-27T11:32:04.817Z,25.30
2019-06-27T11:34:36.102Z,24.80
2019-06-27T11:37:06.899Z,25.30
2019-06-27T11:39:38.373Z,25.70
2019-06-27T11:42:09.021Z,26.20
2019-06-27T11:44:40.459Z,26.20
2019-06-27T11:47:11.207Z,26.30
2019-06-27T11:49:43.135Z,25.90
2019-06-27T11:52:13.829Z,26.30
2019-06-27T11:54:44.777Z,26.60
2019-06-27T11:57:15.432Z,26.50
2019-06-27T11:59:46.055Z,26.30
2019-06-27T12:02:16.765Z,26.10
2019-06-27T12:04:47.476Z,26.10
2019-06-27T12:07:18.352Z,25.90
2019-06-27T12:09:49.050Z,26.00
2019-06-27T12:12:19.740Z,25.60
2019-06-27T12:14:50.445Z,25.20
2019-06-27T12:17:21.097Z,25.40
